createdAt,value
2023-04-04T00:02:12.469Z,7.23
2023-04-04T00:04:58.767Z,6.93
2023-04-04T00:07:42.637Z,7.47
2023-04-04T00:10:26.445Z,8.30
2023-04-04T00:13:10.660Z,6.63
2023-04-04T00:15:55.007Z,6.57
2023-04-04T00:18:38.969Z,4.80
2023-04-04T00:21:25.649Z,11.00
2023-04-04T00:24:09.999Z,5.13
2023-04-04T00:26:54.635Z,6.37
2023-04-04T00:29:38.657Z,5.07
2023-04-04T00:32:22.775Z,5.27
2023-04-04T00:35:07.324Z,7.30
2023-04-04T00:37:52.492Z,5.63
2023-04-04T00:40:42.463Z,4.43
2023-04-04T00:43:27.738Z,6.27
2023-04-04T00:46:15.164Z,6.53
2023-04-04T00:49:00.053Z,7.97
2023-04-04T00:51:44.348Z,4.80
2023-04-04T00:54:31.315Z,4.83
2023-04-04T00:57:16.624Z,6.80
2023-04-04T01:00:01.995Z,6.93
2023-04-04T01:02:48.264Z,4.87
2023-04-04T01:05:33.364Z,4.80
2023-04-04T01:08:22.742Z,7.10
2023-04-04T01:11:08.577Z,4.67
2023-04-04T01:13:53.312Z,4.93
2023-04-04T01:16:37.435Z,3.87
2023-04-04T01:19:30.095Z,5.43
2023-04-04T01:22:15.996Z,6.40
2023-04-04T01:25:03.029Z,7.47
2023-04-04T01:27:49.135Z,8.13
2023-04-04T01:30:38.236Z,5.70
2023-04-04T01:33:28.048Z,5.83
2023-04-04T01:36:18.268Z,6.97
2023-04-04T01:39:11.273Z,5.90
2023-04-04T01:41:57.746Z,10.03
2023-04-04T01:44:43.721Z,8.87
2023-04-04T01:47:29.367Z,17.17
2023-04-04T01:50:13.735Z,10.87
2023-04-04T01:52:57.802Z,12.43
2023-04-04T01:55:42.571Z,5.83
2023-04-04T01:58:26.904Z,7.53
2023-04-04T02:01:12.866Z,8.43
2023-04-04T02:03:57.011Z,10.00
2023-04-04T02:06:41.564Z,8.57
2023-04-04T02:09:25.502Z,11.10
2023-04-04T02:12:10.173Z,9.90
2023-04-04T02:14:54.044Z,10.73
2023-04-04T02:17:40.142Z,7.83
2023-04-04T02:20:24.277Z,12.43
2023-04-04T02:23:08.272Z,11.60
2023-04-04T02:25:52.859Z,9.57
2023-04-04T02:28:36.882Z,13.03
2023-04-04T02:31:20.896Z,11.33
2023-04-04T02:34:06.714Z,9.90
2023-04-04T02:36:51.893Z,10.47
2023-04-04T02:39:36.551Z,10.23
2023-04-04T02:42:20.584Z,11.90
2023-04-04T02:45:05.086Z,15.90
2023-04-04T02:47:51.952Z,10.57
2023-04-04T02:50:42.562Z,9.30
2023-04-04T02:53:29.762Z,14.33
2023-04-04T02:56:19.810Z,10.20
2023-04-04T02:59:05.122Z,8.77
2023-04-04T03:01:48.997Z,11.17
2023-04-04T03:04:33.403Z,14.73
2023-04-04T03:07:19.018Z,11.50
2023-04-04T03:10:02.857Z,12.10
2023-04-04T03:12:47.234Z,8.87
2023-04-04T03:15:31.875Z,10.93
2023-04-04T03:18:16.218Z,14.63
2023-04-04T03:21:00.344Z,14.83
2023-04-04T03:23:46.031Z,15.23
2023-04-04T03:26:30.146Z,22.40
2023-04-04T03:29:14.539Z,19.03
2023-04-04T03:31:58.616Z,14.60
2023-04-04T03:34:42.737Z,14.90
2023-04-04T03:37:26.659Z,13.87
2023-04-04T03:40:12.635Z,16.93
2023-04-04T03:42:56.542Z,15.97
2023-04-04T03:45:40.733Z,15.17
2023-04-04T03:48:25.716Z,13.47
2023-04-04T03:51:09.669Z,15.80
2023-04-04T03:53:54.921Z,14.53
2023-04-04T03:56:40.238Z,13.20
2023-04-04T03:59:24.315Z,11.20
2023-04-04T04:02:08.914Z,16.83
2023-04-04T04:04:53.251Z,15.17
2023-04-04T04:07:37.087Z,15.53
2023-04-04T04:10:21.470Z,19.57
2023-04-04T04:13:06.707Z,16.80
2023-04-04T04:15:51.368Z,20.33
2023-04-04T04:18:39.303Z,22.73
2023-04-04T04:21:28.830Z,19.67
2023-04-04T04:24:12.642Z,17.07
2023-04-04T04:26:56.510Z,19.80
2023-04-04T04:29:41.721Z,18.73
2023-04-04T04:32:27.402Z,21.97
2023-04-04T04:35:11.811Z,19.13
2023-04-04T04:37:57.049Z,16.50
2023-04-04T04:40:41.225Z,16.63
2023-04-04T04:43:32.316Z,23.80
2023-04-04T04:46:18.261Z,17.80
2023-04-04T04:49:02.124Z,13.63
2023-04-04T04:51:49.313Z,15.90
2023-04-04T04:54:35.270Z,17.53
2023-04-04T04:57:19.275Z,21.60
2023-04-04T05:00:04.563Z,18.03
2023-04-04T05:02:50.980Z,19.23
2023-04-04T05:05:44.343Z,14.27
2023-04-04T05:08:30.737Z,17.20
2023-04-04T05:11:21.692Z,19.03
2023-04-04T05:14:06.836Z,16.40
2023-04-04T05:16:56.009Z,16.77
2023-04-04T05:19:46.469Z,18.00
2023-04-04T05:22:34.434Z,17.77
2023-04-04T05:25:18.362Z,20.80
2023-04-04T05:28:04.028Z,16.80
2023-04-04T05:30:49.123Z,10.97
2023-04-04T05:33:36.939Z,17.83
2023-04-04T05:36:29.499Z,24.30
2023-04-04T05:39:18.713Z,16.90
2023-04-04T05:42:14.876Z,23.07
2023-04-04T05:45:05.208Z,24.07
2023-04-04T05:47:49.062Z,25.77
2023-04-04T05:50:32.806Z,20.87
2023-04-04T05:53:21.252Z,12.60
2023-04-04T05:56:07.642Z,25.93
2023-04-04T05:58:52.100Z,16.63
2023-04-04T06:01:36.657Z,18.37
2023-04-04T06:04:27.116Z,13.60
2023-04-04T06:07:12.747Z,16.40
2023-04-04T06:09:57.894Z,19.43
2023-04-04T06:12:42.485Z,12.83
2023-04-04T06:15:27.779Z,15.90
2023-04-04T06:18:11.664Z,16.37
2023-04-04T06:20:55.866Z,21.30
2023-04-04T06:23:40.135Z,18.10
2023-04-04T06:26:27.035Z,20.43
2023-04-04T06:29:11.563Z,23.07
2023-04-04T06:31:58.212Z,19.73
2023-04-04T06:34:51.290Z,18.40
2023-04-04T06:37:44.218Z,20.93
2023-04-04T06:40:34.229Z,18.40
2023-04-04T06:43:19.832Z,25.47
2023-04-04T06:46:03.640Z,17.70
2023-04-04T06:48:47.946Z,21.43
2023-04-04T06:51:34.871Z,19.20
2023-04-04T06:54:18.989Z,26.40
2023-04-04T06:57:03.144Z,20.73
2023-04-04T06:59:48.372Z,19.37
2023-04-04T07:02:33.115Z,20.73
2023-04-04T07:05:18.267Z,24.80
2023-04-04T07:08:02.400Z,17.83
2023-04-04T07:10:46.514Z,13.47
2023-04-04T07:13:30.347Z,18.03
2023-04-04T07:16:15.739Z,12.57
2023-04-04T07:18:59.610Z,17.23
2023-04-04T07:21:43.416Z,19.27
2023-04-04T07:24:27.298Z,16.53
2023-04-04T07:27:11.329Z,10.77
2023-04-04T07:29:55.272Z,13.30
2023-04-04T07:32:40.685Z,15.33
2023-04-04T07:35:24.701Z,12.63
2023-04-04T07:38:08.516Z,24.67
2023-04-04T07:40:52.353Z,15.67
2023-04-04T07:43:36.182Z,18.10
2023-04-04T07:46:20.405Z,16.50
2023-04-04T07:49:06.107Z,13.37
2023-04-04T07:51:50.148Z,16.23
2023-04-04T07:54:33.907Z,20.30
2023-04-04T07:57:17.710Z,16.03
2023-04-04T08:00:01.558Z,18.40
2023-04-04T08:02:46.508Z,10.60
2023-04-04T08:05:31.643Z,14.63
2023-04-04T08:08:15.567Z,11.73
2023-04-04T08:10:59.419Z,23.70
2023-04-04T08:13:43.434Z,13.13
2023-04-04T08:16:27.931Z,13.80
2023-04-04T08:19:12.620Z,14.33
2023-04-04T08:21:58.041Z,16.70
2023-04-04T08:24:41.706Z,22.93
2023-04-04T08:27:25.575Z,11.77
2023-04-04T08:30:10.296Z,15.30
2023-04-04T08:32:54.278Z,13.47
2023-04-04T08:35:38.133Z,12.40
2023-04-04T08:38:23.478Z,16.10
2023-04-04T08:41:07.380Z,11.90
2023-04-04T08:43:54.809Z,15.13
2023-04-04T08:46:39.221Z,16.40
2023-04-04T08:49:25.297Z,19.93
2023-04-04T08:52:12.812Z,20.33
2023-04-04T08:54:59.529Z,13.67
2023-04-04T08:57:43.506Z,15.87
2023-04-04T09:00:28.110Z,18.33
2023-04-04T09:03:19.005Z,14.93
2023-04-04T09:06:03.728Z,19.00
2023-04-04T09:08:48.744Z,13.33
2023-04-04T09:11:35.952Z,14.70
2023-04-04T09:14:20.934Z,18.70
2023-04-04T09:17:04.812Z,16.10
2023-04-04T09:19:48.608Z,20.23
2023-04-04T09:22:32.735Z,15.13
2023-04-04T09:25:17.819Z,19.87
2023-04-04T09:28:05.588Z,23.57
2023-04-04T09:30:49.983Z,19.50
2023-04-04T09:33:34.550Z,15.17
2023-04-04T09:36:18.829Z,39.47
2023-04-04T09:39:04.389Z,18.63
2023-04-04T09:41:48.818Z,18.07
2023-04-04T09:44:34.609Z,16.43
2023-04-04T09:50:22.089Z,23.63
2023-04-04T09:53:06.065Z,25.03
2023-04-04T09:55:54.433Z,17.53
2023-04-04T09:58:46.392Z,18.73
2023-04-04T10:01:39.417Z,19.37
2023-04-04T10:04:24.771Z,22.90
2023-04-04T10:07:13.795Z,18.50
2023-04-04T10:09:58.096Z,23.30
2023-04-04T10:12:41.843Z,20.50
2023-04-04T10:15:26.014Z,16.70
2023-04-04T10:18:12.584Z,25.30
2023-04-04T10:21:12.289Z,23.63
2023-04-04T10:24:00.501Z,18.10
2023-04-04T10:26:44.440Z,19.33
2023-04-04T10:29:29.030Z,21.33
2023-04-04T10:32:18.538Z,29.93
2023-04-04T10:35:07.835Z,22.07
2023-04-04T10:37:58.866Z,21.73
2023-04-04T10:40:49.228Z,18.77
2023-04-04T10:43:36.263Z,18.67
2023-04-04T10:46:30.892Z,22.43
2023-04-04T10:49:16.159Z,20.87
2023-04-04T10:52:02.252Z,16.93
2023-04-04T10:54:47.980Z,17.97
2023-04-04T10:57:32.351Z,20.57
2023-04-04T11:00:19.465Z,18.30
2023-04-04T11:03:03.632Z,19.73
2023-04-04T11:05:49.114Z,18.10
2023-04-04T11:08:37.521Z,23.13
2023-04-04T11:11:23.142Z,18.20
2023-04-04T11:14:08.446Z,20.17
2023-04-04T11:16:53.818Z,14.90
2023-04-04T11:19:41.135Z,15.70
2023-04-04T11:22:24.939Z,29.93
2023-04-04T11:25:31.733Z,19.87
2023-04-04T11:28:25.756Z,22.50
2023-04-04T11:31:29.875Z,15.67
2023-04-04T11:34:14.710Z,16.40
2023-04-04T11:37:01.863Z,20.73
2023-04-04T11:39:50.784Z,15.77
2023-04-04T11:42:39.687Z,16.17
2023-04-04T11:45:27.214Z,18.60
2023-04-04T11:48:11.258Z,16.77
2023-04-04T11:50:55.289Z,18.33
2023-04-04T11:53:39.462Z,22.63
2023-04-04T11:56:23.911Z,17.37
2023-04-04T11:59:11.771Z,15.80
2023-04-04T12:01:56.392Z,19.47
2023-04-04T12:04:44.693Z,18.83
2023-04-04T12:07:30.697Z,20.73
2023-04-04T12:10:14.758Z,20.37
2023-04-04T12:13:00.068Z,15.43
2023-04-04T12:15:45.303Z,17.60
2023-04-04T12:18:29.128Z,21.77
2023-04-04T12:21:13.037Z,19.00
2023-04-04T12:23:57.719Z,27.10
2023-04-04T12:26:43.304Z,19.50
2023-04-04T12:29:29.204Z,24.93
2023-04-04T12:32:15.984Z,29.80
2023-04-04T12:35:02.844Z,22.93
2023-04-04T12:37:59.986Z,20.10
2023-04-04T12:40:46.397Z,18.63
2023-04-04T12:43:30.751Z,24.80
2023-04-04T12:46:15.162Z,19.47
2023-04-04T12:49:01.122Z,30.53
2023-04-04T12:51:46.067Z,30.60
2023-04-04T12:54:31.856Z,24.37
2023-04-04T12:57:20.199Z,25.57
2023-04-04T13:00:06.733Z,17.27
2023-04-04T13:02:52.488Z,21.90
2023-04-04T13:05:39.184Z,26.37
2023-04-04T13:08:23.352Z,22.53
2023-04-04T13:11:07.890Z,32.63
2023-04-04T13:14:02.040Z,21.07
2023-04-04T13:16:46.081Z,20.50
2023-04-04T13:19:29.833Z,22.87
2023-04-04T13:22:15.066Z,18.40
2023-04-04T13:24:58.931Z,19.60
2023-04-04T13:27:42.849Z,22.77
2023-04-04T13:30:28.179Z,17.00
2023-04-04T13:33:12.221Z,16.70
2023-04-04T13:35:57.690Z,16.03
2023-04-04T13:38:43.007Z,17.50
2023-04-04T13:41:26.911Z,16.50
2023-04-04T13:44:11.023Z,14.03
2023-04-04T13:46:54.781Z,15.67
2023-04-04T13:49:38.490Z,14.23
2023-04-04T13:52:22.364Z,16.30
2023-04-04T13:55:08.458Z,17.20
2023-04-04T13:57:52.540Z,22.67
2023-04-04T14:00:36.553Z,21.58
2023-04-04T14:03:20.438Z,11.65
2023-04-04T14:06:10.246Z,19.27
2023-04-04T14:08:54.711Z,17.83
2023-04-04T14:11:39.903Z,15.77
2023-04-04T14:14:25.061Z,23.23
2023-04-04T14:17:09.018Z,21.53
2023-04-04T14:19:52.861Z,21.00
2023-04-04T14:22:36.635Z,15.03
2023-04-04T14:25:20.454Z,15.80
2023-04-04T14:28:06.145Z,12.43
2023-04-04T14:30:51.252Z,19.80
2023-04-04T14:33:35.212Z,14.73
2023-04-04T14:36:21.667Z,16.93
2023-04-04T14:39:05.633Z,13.17
2023-04-04T14:41:49.584Z,17.47
2023-04-04T14:44:35.449Z,17.03
2023-04-04T14:47:19.470Z,19.40
2023-04-04T14:50:04.292Z,15.53
2023-04-04T14:52:51.218Z,19.50
2023-04-04T14:55:35.081Z,24.93
2023-04-04T14:58:18.995Z,22.77
2023-04-04T15:01:04.718Z,24.17
2023-04-04T15:03:48.969Z,22.13
2023-04-04T15:06:36.311Z,24.87
2023-04-04T15:09:20.172Z,19.23
2023-04-04T15:12:04.173Z,23.27
2023-04-04T15:14:47.969Z,21.53
2023-04-04T15:17:33.174Z,22.87
2023-04-04T15:20:17.438Z,20.00
2023-04-04T15:23:01.173Z,20.87
2023-04-04T15:25:45.063Z,28.47
2023-04-04T15:28:29.662Z,30.77
2023-04-04T15:31:15.004Z,24.27
2023-04-04T15:34:03.967Z,21.87
2023-04-04T15:36:50.120Z,22.53
2023-04-04T15:39:39.735Z,21.83
2023-04-04T15:42:29.825Z,20.27
2023-04-04T15:45:14.731Z,21.43
2023-04-04T15:47:58.520Z,28.83
2023-04-04T15:50:43.733Z,18.17
2023-04-04T15:53:27.603Z,21.93
2023-04-04T15:56:11.377Z,27.13
2023-04-04T15:58:55.901Z,21.30
2023-04-04T16:01:40.899Z,21.10
2023-04-04T16:04:24.756Z,19.00
2023-04-04T16:07:10.162Z,16.73
2023-04-04T16:09:53.961Z,21.93
2023-04-04T16:12:37.771Z,19.37
2023-04-04T16:15:21.920Z,18.30
2023-04-04T16:18:05.736Z,15.90
2023-04-04T16:20:49.535Z,12.53
2023-04-04T16:23:34.932Z,6.20
2023-04-04T16:26:18.701Z,10.07
2023-04-04T16:29:03.498Z,7.57
2023-04-04T16:31:47.506Z,5.33
2023-04-04T16:34:31.859Z,10.63
2023-04-04T16:37:16.891Z,10.87
2023-04-04T16:40:02.414Z,5.17
2023-04-04T16:42:47.324Z,8.63
2023-04-04T16:45:32.146Z,5.40
2023-04-04T16:48:16.617Z,4.97
2023-04-04T16:51:00.959Z,6.80
2023-04-04T16:53:44.919Z,3.40
2023-04-04T16:56:31.374Z,4.63
2023-04-04T16:59:17.465Z,3.40
2023-04-04T17:02:02.624Z,3.40
2023-04-04T17:04:47.744Z,4.23
2023-04-04T17:07:32.573Z,8.73
2023-04-04T17:10:17.369Z,7.73
2023-04-04T17:13:03.740Z,4.20
2023-04-04T17:15:49.077Z,3.80
2023-04-04T17:18:34.876Z,4.57
2023-04-04T17:21:20.433Z,2.97
2023-04-04T17:24:05.567Z,3.63
2023-04-04T17:26:50.461Z,2.73
2023-04-04T17:29:37.031Z,3.60
2023-04-04T17:32:22.497Z,6.10
2023-04-04T17:35:08.758Z,4.30
2023-04-04T17:37:53.818Z,3.63
2023-04-04T17:40:41.288Z,5.60
2023-04-04T17:43:26.454Z,7.43
2023-04-04T17:46:12.933Z,13.70
2023-04-04T17:48:58.019Z,18.37
2023-04-04T17:51:43.012Z,14.03
2023-04-04T17:54:29.131Z,10.00
2023-04-04T17:57:14.259Z,12.40
2023-04-04T17:59:59.340Z,7.10
2023-04-04T18:02:46.104Z,4.37
2023-04-04T18:05:30.602Z,4.90
2023-04-04T18:08:15.309Z,4.87
2023-04-04T18:11:00.569Z,9.37
2023-04-04T18:13:45.906Z,12.60
2023-04-04T18:16:31.948Z,14.17
2023-04-04T18:19:21.013Z,13.10
2023-04-04T18:22:06.113Z,8.93
2023-04-04T18:24:51.206Z,4.53
2023-04-04T18:27:36.138Z,4.07
2023-04-04T18:30:21.141Z,4.20
2023-04-04T18:33:06.703Z,4.87
2023-04-04T18:35:52.958Z,4.50
2023-04-04T18:38:37.849Z,13.80
2023-04-04T18:41:23.021Z,9.43
2023-04-04T18:44:10.247Z,6.77
2023-04-04T18:46:55.319Z,3.40
2023-04-04T18:49:40.453Z,3.13
2023-04-04T18:52:27.795Z,2.57
2023-04-04T18:55:13.361Z,8.47
2023-04-04T18:57:58.406Z,2.93
2023-04-04T19:00:43.876Z,2.90
2023-04-04T19:03:29.101Z,4.83
2023-04-04T19:06:14.159Z,2.80
2023-04-04T19:09:04.749Z,2.33
2023-04-04T19:11:50.121Z,3.17
2023-04-04T19:14:35.271Z,2.97
2023-04-04T19:17:20.638Z,3.23
2023-04-04T19:20:06.240Z,3.47
2023-04-04T19:22:51.523Z,2.83
2023-04-04T19:25:38.193Z,4.93
2023-04-04T19:28:23.589Z,3.70
2023-04-04T19:31:12.052Z,3.23
2023-04-04T19:33:57.840Z,6.07
2023-04-04T19:36:43.562Z,4.33
2023-04-04T19:39:34.399Z,4.07
2023-04-04T19:42:28.213Z,3.73
2023-04-04T19:45:14.931Z,4.60
2023-04-04T19:47:59.608Z,6.00
2023-04-04T19:50:44.610Z,4.47
2023-04-04T19:53:31.240Z,2.70
2023-04-04T19:56:17.636Z,3.07
2023-04-04T19:59:09.088Z,3.47
2023-04-04T20:02:00.537Z,2.87
2023-04-04T20:04:45.797Z,3.63
2023-04-04T20:07:31.139Z,3.47
2023-04-04T20:10:38.395Z,3.33
2023-04-04T20:13:23.498Z,3.83
2023-04-04T20:16:12.337Z,3.60
2023-04-04T20:18:59.937Z,3.13
2023-04-04T20:21:44.958Z,3.70
2023-04-04T20:24:31.000Z,3.77
2023-04-04T20:27:25.138Z,3.37
2023-04-04T20:30:14.305Z,3.07
2023-04-04T20:33:01.867Z,3.10
2023-04-04T20:35:46.965Z,3.80
2023-04-04T20:38:32.175Z,3.33
2023-04-04T20:41:20.287Z,3.03
2023-04-04T20:44:05.249Z,2.80
2023-04-04T20:46:50.576Z,2.67
2023-04-04T20:49:36.271Z,3.90
2023-04-04T20:52:25.150Z,4.83
2023-04-04T20:55:10.583Z,3.37
2023-04-04T20:57:58.695Z,2.80
2023-04-04T21:00:43.770Z,3.50
2023-04-04T21:03:37.957Z,3.63
2023-04-04T21:06:31.030Z,3.93
2023-04-04T21:09:15.700Z,3.70
2023-04-04T21:12:01.845Z,3.17
2023-04-04T21:14:47.000Z,2.97
2023-04-04T21:17:31.812Z,2.97
2023-04-04T21:20:18.224Z,3.53
2023-04-04T21:23:07.363Z,4.53
2023-04-04T21:25:52.420Z,4.00
2023-04-04T21:28:39.656Z,4.03
2023-04-04T21:31:26.934Z,4.57
2023-04-04T21:34:17.211Z,4.30
2023-04-04T21:37:03.382Z,3.80
2023-04-04T21:39:50.154Z,4.53
2023-04-04T21:42:34.218Z,4.20
2023-04-04T21:45:18.491Z,4.00
2023-04-04T21:48:02.763Z,5.17
2023-04-04T21:50:47.135Z,4.27
2023-04-04T21:53:31.278Z,3.23
2023-04-04T21:56:16.935Z,4.50
2023-04-04T21:59:02.066Z,4.90
2023-04-04T22:01:45.975Z,4.70
2023-04-04T22:04:29.851Z,4.00
2023-04-04T22:07:13.709Z,4.60
2023-04-04T22:09:58.894Z,4.17
2023-04-04T22:12:46.936Z,8.37
2023-04-04T22:15:30.856Z,4.27
2023-04-04T22:18:15.935Z,5.10
2023-04-04T22:21:03.197Z,5.00
2023-04-04T22:23:46.909Z,4.97
2023-04-04T22:26:32.644Z,4.57
2023-04-04T22:29:17.905Z,4.50
2023-04-04T22:32:01.830Z,3.10
2023-04-04T22:34:45.833Z,5.23
2023-04-04T22:37:30.678Z,5.00
2023-04-04T22:40:14.582Z,4.50
2023-04-04T22:42:58.700Z,4.53
2023-04-04T22:45:43.950Z,4.90
2023-04-04T22:48:30.848Z,4.50
2023-04-04T22:51:15.293Z,3.47
2023-04-04T22:53:59.066Z,4.17
2023-04-04T22:56:43.081Z,3.77
2023-04-04T22:59:27.161Z,3.47
2023-04-04T23:02:12.334Z,4.17
2023-04-04T23:04:58.572Z,3.37
2023-04-04T23:07:43.461Z,4.17
2023-04-04T23:10:27.583Z,4.00
2023-04-04T23:13:11.604Z,4.13
2023-04-04T23:15:55.711Z,3.43
2023-04-04T23:18:43.802Z,3.70
2023-04-04T23:21:28.942Z,3.97
2023-04-04T23:24:12.774Z,4.20
2023-04-04T23:26:56.777Z,3.73
2023-04-04T23:29:40.580Z,3.07
2023-04-04T23:32:24.564Z,3.93
2023-04-04T23:35:11.433Z,5.83
2023-04-04T23:37:55.287Z,3.57
2023-04-04T23:40:39.218Z,3.03
2023-04-04T23:43:23.482Z,3.40
2023-04-04T23:46:07.564Z,4.70
2023-04-04T23:48:51.420Z,4.00
2023-04-04T23:51:39.085Z,2.93
2023-04-04T23:54:23.502Z,3.20
2023-04-04T23:57:07.321Z,3.97
2023-04-04T23:59:51.074Z,2.93
